sensor_id;sensor_type;location;lat;lon;timestamp;P1;durP1;ratioP1;P2;durP2;ratioP2
7759;SDS011;3924;48.830;9.262;2022-12-05T00:04:02;12.67;;;7.30;;
7759;SDS011;3924;48.830;9.262;2022-12-05T00:06:30;14.63;;;8.27;;
7759;SDS011;3924;48.830;9.262;2022-12-05T00:08:58;13.17;;;7.70;;
7759;SDS011;3924;48.830;9.262;2022-12-05T00:11:26;13.70;;;8.73;;
7759;SDS011;3924;48.830;9.262;2022-12-05T00:13:55;15.40;;;8.57;;
7759;SDS011;3924;48.830;9.262;2022-12-05T00:16:24;15.53;;;8.80;;
7759;SDS011;3924;48.830;9.262;2022-12-05T00:18:52;14.13;;;8.43;;
7759;SDS011;3924;48.830;9.262;2022-12-05T00:21:23;17.50;;;8.53;;
7759;SDS011;3924;48.830;9.262;2022-12-05T00:23:52;14.97;;;8.00;;
7759;SDS011;3924;48.830;9.262;2022-12-05T00:26:20;14.50;;;8.90;;
7759;SDS011;3924;48.830;9.262;2022-12-05T00:28:48;13.30;;;8.23;;
7759;SDS011;3924;48.830;9.262;2022-12-05T00:31:17;15.13;;;8.50;;
7759;SDS011;3924;48.830;9.262;2022-12-05T00:33:45;16.93;;;8.20;;
7759;SDS011;3924;48.830;9.262;2022-12-05T00:36:16;14.10;;;7.30;;
7759;SDS011;3924;48.830;9.262;2022-12-05T00:38:44;14.03;;;8.77;;
7759;SDS011;3924;48.830;9.262;2022-12-05T00:41:12;18.80;;;9.43;;
7759;SDS011;3924;48.830;9.262;2022-12-05T00:43:46;14.23;;;8.23;;
7759;SDS011;3924;48.830;9.262;2022-12-05T00:46:14;18.13;;;9.53;;
7759;SDS011;3924;48.830;9.262;2022-12-05T00:48:45;18.27;;;8.50;;
7759;SDS011;3924;48.830;9.262;2022-12-05T00:53:38;16.97;;;9.03;;
7759;SDS011;3924;48.830;9.262;2022-12-05T00:56:06;15.53;;;9.13;;
7759;SDS011;3924;48.830;9.262;2022-12-05T00:58:35;13.80;;;8.80;;
7759;SDS011;3924;48.830;9.262;2022-12-05T01:01:12;15.03;;;8.87;;
7759;SDS011;3924;48.830;9.262;2022-12-05T01:03:40;16.20;;;9.47;;
7759;SDS011;3924;48.830;9.262;2022-12-05T01:08:36;17.90;;;9.43;;
7759;SDS011;3924;48.830;9.262;2022-12-05T01:11:03;15.60;;;8.83;;
7759;SDS011;3924;48.830;9.262;2022-12-05T01:13:31;15.37;;;8.50;;
7759;SDS011;3924;48.830;9.262;2022-12-05T01:15:58;15.53;;;8.90;;
7759;SDS011;3924;48.830;9.262;2022-12-05T01:18:25;16.67;;;8.83;;
7759;SDS011;3924;48.830;9.262;2022-12-05T01:20:53;15.10;;;8.60;;
7759;SDS011;3924;48.830;9.262;2022-12-05T01:23:20;15.80;;;9.00;;
7759;SDS011;3924;48.830;9.262;2022-12-05T01:25:47;13.47;;;7.83;;
7759;SDS011;3924;48.830;9.262;2022-12-05T01:28:16;14.13;;;8.90;;
7759;SDS011;3924;48.830;9.262;2022-12-05T01:30:46;14.73;;;8.87;;
7759;SDS011;3924;48.830;9.262;2022-12-05T01:33:15;15.03;;;8.60;;
7759;SDS011;3924;48.830;9.262;2022-12-05T01:35:42;15.47;;;7.93;;
7759;SDS011;3924;48.830;9.262;2022-12-05T01:38:10;12.37;;;7.40;;
7759;SDS011;3924;48.830;9.262;2022-12-05T01:40:38;15.27;;;8.53;;
7759;SDS011;3924;48.830;9.262;2022-12-05T01:43:15;15.33;;;8.90;;
7759;SDS011;3924;48.830;9.262;2022-12-05T01:45:44;13.57;;;8.10;;
7759;SDS011;3924;48.830;9.262;2022-12-05T01:48:16;12.43;;;7.77;;
7759;SDS011;3924;48.830;9.262;2022-12-05T01:50:46;16.53;;;8.00;;
7759;SDS011;3924;48.830;9.262;2022-12-05T01:53:16;14.90;;;8.13;;
7759;SDS011;3924;48.830;9.262;2022-12-05T01:55:43;13.37;;;8.17;;
7759;SDS011;3924;48.830;9.262;2022-12-05T01:58:12;14.77;;;7.90;;
7759;SDS011;3924;48.830;9.262;2022-12-05T02:00:42;11.80;;;7.77;;
7759;SDS011;3924;48.830;9.262;2022-12-05T02:03:12;11.63;;;7.30;;
7759;SDS011;3924;48.830;9.262;2022-12-05T02:05:43;14.83;;;7.40;;
7759;SDS011;3924;48.830;9.262;2022-12-05T02:08:13;12.20;;;8.17;;
7759;SDS011;3924;48.830;9.262;2022-12-05T02:10:41;13.87;;;8.00;;
7759;SDS011;3924;48.830;9.262;2022-12-05T02:13:23;16.00;;;7.90;;
7759;SDS011;3924;48.830;9.262;2022-12-05T02:18:52;15.17;;;7.90;;
7759;SDS011;3924;48.830;9.262;2022-12-05T02:24:45;14.50;;;8.40;;
7759;SDS011;3924;48.830;9.262;2022-12-05T02:30:09;12.80;;;7.20;;
7759;SDS011;3924;48.830;9.262;2022-12-05T02:38:20;10.67;;;6.97;;
7759;SDS011;3924;48.830;9.262;2022-12-05T02:43:46;15.60;;;7.00;;
7759;SDS011;3924;48.830;9.262;2022-12-05T02:46:21;12.83;;;7.60;;
7759;SDS011;3924;48.830;9.262;2022-12-05T02:48:52;11.87;;;6.77;;
7759;SDS011;3924;48.830;9.262;2022-12-05T02:51:22;12.40;;;6.60;;
7759;SDS011;3924;48.830;9.262;2022-12-05T02:53:55;12.40;;;6.83;;
7759;SDS011;3924;48.830;9.262;2022-12-05T02:56:25;12.27;;;6.80;;
7759;SDS011;3924;48.830;9.262;2022-12-05T02:58:53;12.00;;;7.40;;
7759;SDS011;3924;48.830;9.262;2022-12-05T03:01:22;13.83;;;7.40;;
7759;SDS011;3924;48.830;9.262;2022-12-05T03:03:53;11.80;;;7.50;;
7759;SDS011;3924;48.830;9.262;2022-12-05T03:11:39;13.37;;;6.97;;
7759;SDS011;3924;48.830;9.262;2022-12-05T03:14:12;12.37;;;7.13;;
7759;SDS011;3924;48.830;9.262;2022-12-05T03:16:50;14.60;;;8.17;;
7759;SDS011;3924;48.830;9.262;2022-12-05T03:19:20;15.43;;;7.10;;
7759;SDS011;3924;48.830;9.262;2022-12-05T03:22:00;11.57;;;7.43;;
7759;SDS011;3924;48.830;9.262;2022-12-05T03:24:34;13.87;;;8.17;;
7759;SDS011;3924;48.830;9.262;2022-12-05T03:27:07;15.27;;;7.77;;
7759;SDS011;3924;48.830;9.262;2022-12-05T03:29:50;13.97;;;7.67;;
7759;SDS011;3924;48.830;9.262;2022-12-05T03:35:26;14.57;;;7.97;;
7759;SDS011;3924;48.830;9.262;2022-12-05T03:38:09;16.60;;;8.47;;
7759;SDS011;3924;48.830;9.262;2022-12-05T03:40:41;12.50;;;7.20;;
7759;SDS011;3924;48.830;9.262;2022-12-05T03:43:21;18.33;;;7.80;;
7759;SDS011;3924;48.830;9.262;2022-12-05T03:45:59;13.43;;;8.00;;
7759;SDS011;3924;48.830;9.262;2022-12-05T03:48:37;13.53;;;8.10;;
7759;SDS011;3924;48.830;9.262;2022-12-05T03:51:12;16.70;;;8.57;;
7759;SDS011;3924;48.830;9.262;2022-12-05T03:53:56;16.73;;;8.60;;
7759;SDS011;3924;48.830;9.262;2022-12-05T03:56:34;12.30;;;7.80;;
7759;SDS011;3924;48.830;9.262;2022-12-05T04:01:49;16.67;;;8.20;;
7759;SDS011;3924;48.830;9.262;2022-12-05T04:04:24;12.97;;;7.40;;
7759;SDS011;3924;48.830;9.262;2022-12-05T04:06:55;11.73;;;8.03;;
7759;SDS011;3924;48.830;9.262;2022-12-05T04:09:48;13.47;;;7.80;;
7759;SDS011;3924;48.830;9.262;2022-12-05T04:12:16;14.90;;;7.17;;
7759;SDS011;3924;48.830;9.262;2022-12-05T04:14:49;13.27;;;7.67;;
7759;SDS011;3924;48.830;9.262;2022-12-05T04:17:38;13.63;;;7.90;;
7759;SDS011;3924;48.830;9.262;2022-12-05T04:20:35;12.17;;;7.70;;
7759;SDS011;3924;48.830;9.262;2022-12-05T04:23:24;14.63;;;8.07;;
7759;SDS011;3924;48.830;9.262;2022-12-05T04:31:15;14.87;;;8.50;;
7759;SDS011;3924;48.830;9.262;2022-12-05T04:33:45;15.43;;;8.20;;
7759;SDS011;3924;48.830;9.262;2022-12-05T04:39:00;16.53;;;8.63;;
7759;SDS011;3924;48.830;9.262;2022-12-05T04:41:40;15.30;;;7.50;;
7759;SDS011;3924;48.830;9.262;2022-12-05T04:44:14;15.03;;;8.43;;
7759;SDS011;3924;48.830;9.262;2022-12-05T04:46:50;16.07;;;8.57;;
7759;SDS011;3924;48.830;9.262;2022-12-05T04:49:20;13.17;;;7.17;;
7759;SDS011;3924;48.830;9.262;2022-12-05T04:51:53;13.93;;;7.43;;
7759;SDS011;3924;48.830;9.262;2022-12-05T04:54:25;14.83;;;7.70;;
7759;SDS011;3924;48.830;9.262;2022-12-05T04:56:56;13.53;;;8.40;;
7759;SDS011;3924;48.830;9.262;2022-12-05T04:59:30;16.43;;;7.63;;
7759;SDS011;3924;48.830;9.262;2022-12-05T05:01:58;15.63;;;8.33;;
7759;SDS011;3924;48.830;9.262;2022-12-05T05:04:42;19.70;;;9.07;;
7759;SDS011;3924;48.830;9.262;2022-12-05T05:07:13;14.37;;;7.67;;
7759;SDS011;3924;48.830;9.262;2022-12-05T05:09:42;13.43;;;8.27;;
7759;SDS011;3924;48.830;9.262;2022-12-05T05:12:09;14.60;;;8.60;;
7759;SDS011;3924;48.830;9.262;2022-12-05T05:14:43;16.20;;;8.87;;
7759;SDS011;3924;48.830;9.262;2022-12-05T05:17:10;14.03;;;8.10;;
7759;SDS011;3924;48.830;9.262;2022-12-05T05:19:37;15.23;;;8.43;;
7759;SDS011;3924;48.830;9.262;2022-12-05T05:22:04;11.60;;;7.70;;
7759;SDS011;3924;48.830;9.262;2022-12-05T05:24:30;17.27;;;8.53;;
7759;SDS011;3924;48.830;9.262;2022-12-05T05:26:57;16.97;;;8.43;;
7759;SDS011;3924;48.830;9.262;2022-12-05T05:29:24;18.47;;;8.53;;
7759;SDS011;3924;48.830;9.262;2022-12-05T05:31:51;13.80;;;7.73;;
7759;SDS011;3924;48.830;9.262;2022-12-05T05:34:18;14.47;;;7.93;;
7759;SDS011;3924;48.830;9.262;2022-12-05T05:36:44;18.40;;;9.13;;
7759;SDS011;3924;48.830;9.262;2022-12-05T05:39:12;15.47;;;8.77;;
7759;SDS011;3924;48.830;9.262;2022-12-05T05:41:40;16.63;;;8.73;;
7759;SDS011;3924;48.830;9.262;2022-12-05T05:44:08;16.13;;;8.37;;
7759;SDS011;3924;48.830;9.262;2022-12-05T05:46:35;14.50;;;7.87;;
7759;SDS011;3924;48.830;9.262;2022-12-05T05:49:02;15.10;;;7.80;;
7759;SDS011;3924;48.830;9.262;2022-12-05T05:51:29;14.40;;;8.33;;
7759;SDS011;3924;48.830;9.262;2022-12-05T05:53:59;16.63;;;8.60;;
7759;SDS011;3924;48.830;9.262;2022-12-05T05:56:26;15.13;;;7.83;;
7759;SDS011;3924;48.830;9.262;2022-12-05T05:58:57;13.07;;;7.60;;
7759;SDS011;3924;48.830;9.262;2022-12-05T06:01:26;14.00;;;7.90;;
7759;SDS011;3924;48.830;9.262;2022-12-05T06:03:55;15.90;;;8.50;;
7759;SDS011;3924;48.830;9.262;2022-12-05T06:06:23;14.93;;;8.23;;
7759;SDS011;3924;48.830;9.262;2022-12-05T06:08:50;17.47;;;8.40;;
7759;SDS011;3924;48.830;9.262;2022-12-05T06:11:19;14.70;;;8.00;;
7759;SDS011;3924;48.830;9.262;2022-12-05T06:13:53;14.03;;;8.70;;
7759;SDS011;3924;48.830;9.262;2022-12-05T06:16:21;16.60;;;9.10;;
7759;SDS011;3924;48.830;9.262;2022-12-05T06:18:48;15.63;;;9.03;;
7759;SDS011;3924;48.830;9.262;2022-12-05T06:21:15;14.97;;;8.70;;
7759;SDS011;3924;48.830;9.262;2022-12-05T06:23:44;13.50;;;7.93;;
7759;SDS011;3924;48.830;9.262;2022-12-05T06:26:12;14.33;;;7.50;;
7759;SDS011;3924;48.830;9.262;2022-12-05T06:28:41;14.60;;;8.63;;
7759;SDS011;3924;48.830;9.262;2022-12-05T06:31:09;13.07;;;7.70;;
7759;SDS011;3924;48.830;9.262;2022-12-05T06:33:38;13.47;;;7.77;;
7759;SDS011;3924;48.830;9.262;2022-12-05T06:36:07;14.00;;;7.77;;
7759;SDS011;3924;48.830;9.262;2022-12-05T06:38:35;13.17;;;8.27;;
7759;SDS011;3924;48.830;9.262;2022-12-05T06:41:08;14.93;;;8.30;;
7759;SDS011;3924;48.830;9.262;2022-12-05T06:43:36;14.93;;;8.87;;
7759;SDS011;3924;48.830;9.262;2022-12-05T06:46:04;12.43;;;7.60;;
7759;SDS011;3924;48.830;9.262;2022-12-05T06:48:31;13.43;;;8.17;;
7759;SDS011;3924;48.830;9.262;2022-12-05T06:50:58;13.03;;;7.53;;
7759;SDS011;3924;48.830;9.262;2022-12-05T06:53:26;16.87;;;8.67;;
7759;SDS011;3924;48.830;9.262;2022-12-05T06:55:57;18.77;;;8.77;;
7759;SDS011;3924;48.830;9.262;2022-12-05T06:58:25;18.63;;;8.20;;
7759;SDS011;3924;48.830;9.262;2022-12-05T07:00:53;14.37;;;7.53;;
7759;SDS011;3924;48.830;9.262;2022-12-05T07:03:38;13.93;;;7.03;;
7759;SDS011;3924;48.830;9.262;2022-12-05T07:06:07;16.10;;;8.17;;
7759;SDS011;3924;48.830;9.262;2022-12-05T07:08:34;12.03;;;7.33;;
7759;SDS011;3924;48.830;9.262;2022-12-05T07:11:01;13.43;;;7.83;;
7759;SDS011;3924;48.830;9.262;2022-12-05T07:13:29;13.00;;;7.27;;
7759;SDS011;3924;48.830;9.262;2022-12-05T07:15:55;11.33;;;7.37;;
7759;SDS011;3924;48.830;9.262;2022-12-05T07:18:24;12.07;;;7.20;;
7759;SDS011;3924;48.830;9.262;2022-12-05T07:21:01;14.77;;;8.20;;
7759;SDS011;3924;48.830;9.262;2022-12-05T07:23:39;18.13;;;8.57;;
7759;SDS011;3924;48.830;9.262;2022-12-05T07:26:13;17.87;;;9.13;;
7759;SDS011;3924;48.830;9.262;2022-12-05T07:28:41;17.07;;;8.80;;
7759;SDS011;3924;48.830;9.262;2022-12-05T07:31:13;12.47;;;7.73;;
7759;SDS011;3924;48.830;9.262;2022-12-05T07:33:48;15.10;;;8.57;;
7759;SDS011;3924;48.830;9.262;2022-12-05T07:36:16;17.37;;;8.17;;
7759;SDS011;3924;48.830;9.262;2022-12-05T07:38:44;15.87;;;8.17;;
7759;SDS011;3924;48.830;9.262;2022-12-05T07:41:24;15.20;;;8.73;;
7759;SDS011;3924;48.830;9.262;2022-12-05T07:43:53;12.63;;;7.83;;
7759;SDS011;3924;48.830;9.262;2022-12-05T07:46:22;15.00;;;7.80;;
7759;SDS011;3924;48.830;9.262;2022-12-05T07:48:50;10.97;;;7.37;;
7759;SDS011;3924;48.830;9.262;2022-12-05T07:51:17;13.87;;;7.77;;
7759;SDS011;3924;48.830;9.262;2022-12-05T07:53:45;12.60;;;8.47;;
7759;SDS011;3924;48.830;9.262;2022-12-05T07:56:12;16.17;;;8.37;;
7759;SDS011;3924;48.830;9.262;2022-12-05T07:58:42;12.57;;;7.93;;
7759;SDS011;3924;48.830;9.262;2022-12-05T08:01:14;14.90;;;8.27;;
7759;SDS011;3924;48.830;9.262;2022-12-05T08:03:43;10.90;;;7.07;;
7759;SDS011;3924;48.830;9.262;2022-12-05T08:06:11;17.77;;;8.03;;
7759;SDS011;3924;48.830;9.262;2022-12-05T08:08:43;10.43;;;7.10;;
7759;SDS011;3924;48.830;9.262;2022-12-05T08:11:12;11.07;;;7.63;;
7759;SDS011;3924;48.830;9.262;2022-12-05T08:13:41;13.20;;;7.70;;
7759;SDS011;3924;48.830;9.262;2022-12-05T08:16:11;13.93;;;7.50;;
7759;SDS011;3924;48.830;9.262;2022-12-05T08:18:39;13.03;;;6.70;;
7759;SDS011;3924;48.830;9.262;2022-12-05T08:21:09;14.03;;;8.20;;
7759;SDS011;3924;48.830;9.262;2022-12-05T08:23:37;14.50;;;8.10;;
7759;SDS011;3924;48.830;9.262;2022-12-05T08:26:09;13.83;;;8.07;;
7759;SDS011;3924;48.830;9.262;2022-12-05T08:28:38;12.90;;;7.77;;
7759;SDS011;3924;48.830;9.262;2022-12-05T08:31:12;14.20;;;8.00;;
7759;SDS011;3924;48.830;9.262;2022-12-05T08:33:43;12.57;;;7.67;;
7759;SDS011;3924;48.830;9.262;2022-12-05T08:36:11;10.23;;;6.83;;
7759;SDS011;3924;48.830;9.262;2022-12-05T08:38:41;10.97;;;7.07;;
7759;SDS011;3924;48.830;9.262;2022-12-05T08:41:09;10.97;;;7.17;;
7759;SDS011;3924;48.830;9.262;2022-12-05T08:43:38;11.00;;;7.33;;
7759;SDS011;3924;48.830;9.262;2022-12-05T08:46:05;10.57;;;7.40;;
7759;SDS011;3924;48.830;9.262;2022-12-05T08:48:33;16.00;;;7.67;;
7759;SDS011;3924;48.830;9.262;2022-12-05T08:51:03;11.07;;;8.10;;
7759;SDS011;3924;48.830;9.262;2022-12-05T08:53:31;16.57;;;7.63;;
7759;SDS011;3924;48.830;9.262;2022-12-05T08:56:02;12.33;;;7.10;;
7759;SDS011;3924;48.830;9.262;2022-12-05T08:58:30;12.30;;;7.23;;
7759;SDS011;3924;48.830;9.262;2022-12-05T09:03:36;14.60;;;7.40;;
7759;SDS011;3924;48.830;9.262;2022-12-05T09:06:08;8.37;;;6.63;;
7759;SDS011;3924;48.830;9.262;2022-12-05T09:08:37;12.23;;;6.70;;
7759;SDS011;3924;48.830;9.262;2022-12-05T09:11:08;12.87;;;7.67;;
7759;SDS011;3924;48.830;9.262;2022-12-05T09:13:36;11.53;;;7.60;;
7759;SDS011;3924;48.830;9.262;2022-12-05T09:16:04;11.77;;;6.73;;
7759;SDS011;3924;48.830;9.262;2022-12-05T09:18:35;15.67;;;8.03;;
7759;SDS011;3924;48.830;9.262;2022-12-05T09:21:06;12.03;;;6.57;;
7759;SDS011;3924;48.830;9.262;2022-12-05T09:23:37;9.93;;;6.83;;
7759;SDS011;3924;48.830;9.262;2022-12-05T09:26:04;13.43;;;7.33;;
7759;SDS011;3924;48.830;9.262;2022-12-05T09:28:32;10.67;;;6.73;;
7759;SDS011;3924;48.830;9.262;2022-12-05T09:31:01;11.00;;;7.43;;
7759;SDS011;3924;48.830;9.262;2022-12-05T09:33:31;11.43;;;7.30;;
7759;SDS011;3924;48.830;9.262;2022-12-05T09:36:06;13.03;;;7.40;;
7759;SDS011;3924;48.830;9.262;2022-12-05T09:38:37;11.93;;;6.70;;
7759;SDS011;3924;48.830;9.262;2022-12-05T09:49:17;10.27;;;7.33;;
7759;SDS011;3924;48.830;9.262;2022-12-05T09:51:45;8.50;;;6.73;;
7759;SDS011;3924;48.830;9.262;2022-12-05T09:54:20;11.37;;;7.40;;
7759;SDS011;3924;48.830;9.262;2022-12-05T09:56:48;9.93;;;6.43;;
7759;SDS011;3924;48.830;9.262;2022-12-05T09:59:16;11.20;;;6.77;;
7759;SDS011;3924;48.830;9.262;2022-12-05T10:04:45;9.73;;;6.50;;
7759;SDS011;3924;48.830;9.262;2022-12-05T10:10:44;7.07;;;5.30;;
7759;SDS011;3924;48.830;9.262;2022-12-05T10:13:36;9.13;;;5.90;;
7759;SDS011;3924;48.830;9.262;2022-12-05T10:16:33;6.67;;;5.47;;
7759;SDS011;3924;48.830;9.262;2022-12-05T10:19:11;11.07;;;6.47;;
7759;SDS011;3924;48.830;9.262;2022-12-05T10:21:55;10.20;;;7.40;;
7759;SDS011;3924;48.830;9.262;2022-12-05T10:24:32;9.40;;;7.10;;
7759;SDS011;3924;48.830;9.262;2022-12-05T10:27:09;8.30;;;5.80;;
7759;SDS011;3924;48.830;9.262;2022-12-05T10:30:24;8.60;;;6.17;;
7759;SDS011;3924;48.830;9.262;2022-12-05T10:32:55;10.43;;;7.07;;
7759;SDS011;3924;48.830;9.262;2022-12-05T10:35:33;8.67;;;6.37;;
7759;SDS011;3924;48.830;9.262;2022-12-05T10:38:02;13.53;;;8.00;;
7759;SDS011;3924;48.830;9.262;2022-12-05T10:40:39;8.47;;;5.90;;
7759;SDS011;3924;48.830;9.262;2022-12-05T10:43:09;9.03;;;5.83;;
7759;SDS011;3924;48.830;9.262;2022-12-05T10:45:43;8.23;;;5.40;;
7759;SDS011;3924;48.830;9.262;2022-12-05T10:48:12;11.67;;;6.47;;
7759;SDS011;3924;48.830;9.262;2022-12-05T10:50:41;11.07;;;6.03;;
7759;SDS011;3924;48.830;9.262;2022-12-05T10:53:14;10.57;;;7.30;;
7759;SDS011;3924;48.830;9.262;2022-12-05T10:55:46;10.13;;;7.43;;
7759;SDS011;3924;48.830;9.262;2022-12-05T10:58:34;10.87;;;7.00;;
7759;SDS011;3924;48.830;9.262;2022-12-05T11:01:06;13.90;;;8.60;;
7759;SDS011;3924;48.830;9.262;2022-12-05T11:03:36;9.93;;;7.13;;
7759;SDS011;3924;48.830;9.262;2022-12-05T11:06:18;10.30;;;7.10;;
7759;SDS011;3924;48.830;9.262;2022-12-05T11:08:53;11.47;;;6.50;;
7759;SDS011;3924;48.830;9.262;2022-12-05T11:11:42;14.50;;;8.47;;
7759;SDS011;3924;48.830;9.262;2022-12-05T11:14:24;7.50;;;5.83;;
7759;SDS011;3924;48.830;9.262;2022-12-05T11:16:53;11.90;;;7.23;;
7759;SDS011;3924;48.830;9.262;2022-12-05T11:21:56;10.03;;;5.93;;
7759;SDS011;3924;48.830;9.262;2022-12-05T11:26:59;16.37;;;7.60;;
7759;SDS011;3924;48.830;9.262;2022-12-05T11:29:53;8.73;;;6.63;;
7759;SDS011;3924;48.830;9.262;2022-12-05T11:32:22;9.60;;;5.47;;
7759;SDS011;3924;48.830;9.262;2022-12-05T11:37:44;8.40;;;5.97;;
7759;SDS011;3924;48.830;9.262;2022-12-05T11:43:10;11.37;;;6.77;;
7759;SDS011;3924;48.830;9.262;2022-12-05T11:45:47;13.10;;;7.33;;
7759;SDS011;3924;48.830;9.262;2022-12-05T11:48:28;9.23;;;7.33;;
7759;SDS011;3924;48.830;9.262;2022-12-05T11:54:01;12.87;;;7.73;;
7759;SDS011;3924;48.830;9.262;2022-12-05T11:56:36;13.50;;;7.60;;
7759;SDS011;3924;48.830;9.262;2022-12-05T12:16:36;14.57;;;7.80;;
7759;SDS011;3924;48.830;9.262;2022-12-05T12:22:01;14.10;;;7.77;;
7759;SDS011;3924;48.830;9.262;2022-12-05T12:24:47;17.70;;;8.07;;
7759;SDS011;3924;48.830;9.262;2022-12-05T12:30:10;12.53;;;7.60;;
7759;SDS011;3924;48.830;9.262;2022-12-05T12:35:26;9.30;;;5.97;;
7759;SDS011;3924;48.830;9.262;2022-12-05T12:38:00;22.97;;;7.43;;
7759;SDS011;3924;48.830;9.262;2022-12-05T12:40:50;11.63;;;6.23;;
7759;SDS011;3924;48.830;9.262;2022-12-05T12:46:14;14.07;;;6.87;;
7759;SDS011;3924;48.830;9.262;2022-12-05T12:48:58;15.67;;;6.63;;
7759;SDS011;3924;48.830;9.262;2022-12-05T12:51:27;10.50;;;6.87;;
7759;SDS011;3924;48.830;9.262;2022-12-05T13:00:02;12.87;;;8.07;;
7759;SDS011;3924;48.830;9.262;2022-12-05T13:02:46;11.93;;;7.23;;
7759;SDS011;3924;48.830;9.262;2022-12-05T13:05:42;15.73;;;7.30;;
7759;SDS011;3924;48.830;9.262;2022-12-05T13:08:15;11.73;;;7.77;;
7759;SDS011;3924;48.830;9.262;2022-12-05T13:10:46;11.93;;;7.70;;
7759;SDS011;3924;48.830;9.262;2022-12-05T13:13:19;11.53;;;7.80;;
7759;SDS011;3924;48.830;9.262;2022-12-05T13:15:51;12.47;;;7.77;;
7759;SDS011;3924;48.830;9.262;2022-12-05T13:18:23;8.50;;;6.30;;
7759;SDS011;3924;48.830;9.262;2022-12-05T13:20:52;12.27;;;7.77;;
7759;SDS011;3924;48.830;9.262;2022-12-05T13:23:22;11.67;;;7.37;;
7759;SDS011;3924;48.830;9.262;2022-12-05T13:25:53;10.40;;;7.30;;
7759;SDS011;3924;48.830;9.262;2022-12-05T13:28:30;11.40;;;7.73;;
7759;SDS011;3924;48.830;9.262;2022-12-05T13:30:58;13.90;;;7.60;;
7759;SDS011;3924;48.830;9.262;2022-12-05T13:33:44;10.90;;;7.80;;
7759;SDS011;3924;48.830;9.262;2022-12-05T13:36:20;12.50;;;8.07;;
7759;SDS011;3924;48.830;9.262;2022-12-05T13:39:11;12.03;;;7.80;;
7759;SDS011;3924;48.830;9.262;2022-12-05T13:42:03;12.77;;;7.33;;
7759;SDS011;3924;48.830;9.262;2022-12-05T13:44:41;12.23;;;6.90;;
7759;SDS011;3924;48.830;9.262;2022-12-05T13:47:30;16.00;;;8.07;;
7759;SDS011;3924;48.830;9.262;2022-12-05T13:53:02;9.40;;;6.67;;
7759;SDS011;3924;48.830;9.262;2022-12-05T13:55:32;14.53;;;7.37;;
7759;SDS011;3924;48.830;9.262;2022-12-05T14:00:45;10.07;;;7.00;;
7759;SDS011;3924;48.830;9.262;2022-12-05T14:06:00;12.80;;;6.17;;
7759;SDS011;3924;48.830;9.262;2022-12-05T14:15:54;8.47;;;5.90;;
7759;SDS011;3924;48.830;9.262;2022-12-05T14:21:45;12.47;;;7.33;;
7759;SDS011;3924;48.830;9.262;2022-12-05T14:24:22;11.50;;;7.47;;
7759;SDS011;3924;48.830;9.262;2022-12-05T14:32:16;12.83;;;7.30;;
7759;SDS011;3924;48.830;9.262;2022-12-05T14:40:29;9.90;;;6.40;;
7759;SDS011;3924;48.830;9.262;2022-12-05T14:42:59;9.43;;;6.57;;
7759;SDS011;3924;48.830;9.262;2022-12-05T14:45:34;12.13;;;7.80;;
7759;SDS011;3924;48.830;9.262;2022-12-05T14:48:05;9.63;;;6.97;;
7759;SDS011;3924;48.830;9.262;2022-12-05T14:50:58;13.30;;;7.87;;
7759;SDS011;3924;48.830;9.262;2022-12-05T14:53:30;12.77;;;7.50;;
7759;SDS011;3924;48.830;9.262;2022-12-05T15:04:07;9.93;;;7.10;;
7759;SDS011;3924;48.830;9.262;2022-12-05T15:09:26;14.30;;;7.67;;
7759;SDS011;3924;48.830;9.262;2022-12-05T15:12:09;12.17;;;7.93;;
7759;SDS011;3924;48.830;9.262;2022-12-05T15:18:02;11.37;;;8.37;;
7759;SDS011;3924;48.830;9.262;2022-12-05T15:20:41;16.77;;;8.40;;
7759;SDS011;3924;48.830;9.262;2022-12-05T15:26:04;13.17;;;7.83;;
7759;SDS011;3924;48.830;9.262;2022-12-05T15:32:02;12.13;;;7.70;;
7759;SDS011;3924;48.830;9.262;2022-12-05T15:40:15;16.37;;;8.60;;
7759;SDS011;3924;48.830;9.262;2022-12-05T15:42:47;15.10;;;8.20;;
7759;SDS011;3924;48.830;9.262;2022-12-05T15:45:26;14.60;;;8.23;;
7759;SDS011;3924;48.830;9.262;2022-12-05T15:47:55;16.23;;;7.90;;
7759;SDS011;3924;48.830;9.262;2022-12-05T15:50:38;11.03;;;7.23;;
7759;SDS011;3924;48.830;9.262;2022-12-05T15:55:39;13.23;;;7.90;;
7759;SDS011;3924;48.830;9.262;2022-12-05T15:58:29;14.00;;;7.47;;
7759;SDS011;3924;48.830;9.262;2022-12-05T16:03:42;10.77;;;7.67;;
7759;SDS011;3924;48.830;9.262;2022-12-05T16:06:16;14.37;;;7.40;;
7759;SDS011;3924;48.830;9.262;2022-12-05T16:08:53;10.53;;;7.13;;
7759;SDS011;3924;48.830;9.262;2022-12-05T16:11:21;10.90;;;7.23;;
7759;SDS011;3924;48.830;9.262;2022-12-05T16:13:49;12.67;;;8.53;;
7759;SDS011;3924;48.830;9.262;2022-12-05T16:16:20;11.90;;;8.07;;
7759;SDS011;3924;48.830;9.262;2022-12-05T16:18:58;13.63;;;8.43;;
7759;SDS011;3924;48.830;9.262;2022-12-05T16:21:36;12.00;;;7.67;;
7759;SDS011;3924;48.830;9.262;2022-12-05T16:26:50;14.17;;;8.37;;
7759;SDS011;3924;48.830;9.262;2022-12-05T16:29:28;11.87;;;8.90;;
7759;SDS011;3924;48.830;9.262;2022-12-05T16:31:56;14.10;;;9.83;;
7759;SDS011;3924;48.830;9.262;2022-12-05T16:34:24;12.98;;;8.35;;
7759;SDS011;3924;48.830;9.262;2022-12-05T16:36:53;16.73;;;11.93;;
7759;SDS011;3924;48.830;9.262;2022-12-05T16:39:22;16.63;;;11.57;;
7759;SDS011;3924;48.830;9.262;2022-12-05T16:41:51;14.00;;;10.27;;
7759;SDS011;3924;48.830;9.262;2022-12-05T16:44:44;15.27;;;10.80;;
7759;SDS011;3924;48.830;9.262;2022-12-05T16:47:24;13.03;;;8.63;;
7759;SDS011;3924;48.830;9.262;2022-12-05T16:52:48;14.07;;;9.57;;
7759;SDS011;3924;48.830;9.262;2022-12-05T16:55:15;15.47;;;9.33;;
7759;SDS011;3924;48.830;9.262;2022-12-05T16:57:42;12.33;;;8.67;;
7759;SDS011;3924;48.830;9.262;2022-12-05T17:00:13;19.10;;;8.97;;
7759;SDS011;3924;48.830;9.262;2022-12-05T17:02:40;13.17;;;9.63;;
7759;SDS011;3924;48.830;9.262;2022-12-05T17:05:13;16.43;;;8.73;;
7759;SDS011;3924;48.830;9.262;2022-12-05T17:07:40;11.37;;;8.73;;
7759;SDS011;3924;48.830;9.262;2022-12-05T17:10:07;14.13;;;8.83;;
7759;SDS011;3924;48.830;9.262;2022-12-05T17:12:34;12.77;;;8.27;;
7759;SDS011;3924;48.830;9.262;2022-12-05T17:15:01;14.60;;;9.03;;
7759;SDS011;3924;48.830;9.262;2022-12-05T17:17:27;13.27;;;9.07;;
7759;SDS011;3924;48.830;9.262;2022-12-05T17:19:54;15.97;;;10.30;;
7759;SDS011;3924;48.830;9.262;2022-12-05T17:22:21;18.57;;;13.20;;
7759;SDS011;3924;48.830;9.262;2022-12-05T17:24:48;19.20;;;13.40;;
7759;SDS011;3924;48.830;9.262;2022-12-05T17:27:15;22.23;;;13.00;;
7759;SDS011;3924;48.830;9.262;2022-12-05T17:29:41;18.70;;;11.27;;
7759;SDS011;3924;48.830;9.262;2022-12-05T17:32:08;17.57;;;10.83;;
7759;SDS011;3924;48.830;9.262;2022-12-05T17:34:36;15.87;;;9.93;;
7759;SDS011;3924;48.830;9.262;2022-12-05T17:37:04;17.33;;;10.57;;
7759;SDS011;3924;48.830;9.262;2022-12-05T17:39:32;16.90;;;10.67;;
7759;SDS011;3924;48.830;9.262;2022-12-05T17:41:59;14.20;;;9.83;;
7759;SDS011;3924;48.830;9.262;2022-12-05T17:44:25;17.53;;;10.43;;
7759;SDS011;3924;48.830;9.262;2022-12-05T17:46:52;19.53;;;11.13;;
7759;SDS011;3924;48.830;9.262;2022-12-05T17:49:19;19.00;;;12.00;;
7759;SDS011;3924;48.830;9.262;2022-12-05T17:51:48;15.67;;;10.17;;
7759;SDS011;3924;48.830;9.262;2022-12-05T17:54:34;19.33;;;10.27;;
7759;SDS011;3924;48.830;9.262;2022-12-05T17:57:01;15.30;;;9.27;;
7759;SDS011;3924;48.830;9.262;2022-12-05T17:59:28;13.50;;;9.23;;
7759;SDS011;3924;48.830;9.262;2022-12-05T18:01:54;14.43;;;9.87;;
7759;SDS011;3924;48.830;9.262;2022-12-05T18:04:21;14.77;;;10.23;;
7759;SDS011;3924;48.830;9.262;2022-12-05T18:06:49;21.33;;;12.27;;
7759;SDS011;3924;48.830;9.262;2022-12-05T18:09:15;18.03;;;11.43;;
7759;SDS011;3924;48.830;9.262;2022-12-05T18:11:42;16.43;;;11.53;;
7759;SDS011;3924;48.830;9.262;2022-12-05T18:14:09;22.30;;;11.47;;
7759;SDS011;3924;48.830;9.262;2022-12-05T18:16:35;22.03;;;11.43;;
7759;SDS011;3924;48.830;9.262;2022-12-05T18:19:03;16.57;;;11.40;;
7759;SDS011;3924;48.830;9.262;2022-12-05T18:21:29;15.67;;;10.43;;
7759;SDS011;3924;48.830;9.262;2022-12-05T18:23:57;14.77;;;10.37;;
7759;SDS011;3924;48.830;9.262;2022-12-05T18:26:26;18.60;;;10.60;;